createdAt,value
2019-04-04T00:04:42.641Z,34.60
2019-04-04T00:09:47.583Z,34.60
2019-04-04T00:14:51.823Z,34.70
2019-04-04T00:19:55.694Z,34.80
2019-04-04T00:24:59.565Z,34.70
2019-04-04T00:30:03.444Z,34.80
2019-04-04T00:35:06.788Z,34.80
2019-04-04T00:40:11.687Z,34.90
2019-04-04T00:45:15.187Z,34.80
2019-04-04T00:50:18.477Z,34.70
2019-04-04T00:55:22.057Z,34.10
2019-04-04T01:00:25.390Z,34.90
2019-04-04T01:05:30.134Z,34.90
2019-04-04T01:10:34.300Z,35.10
2019-04-04T01:15:37.815Z,35.20
2019-04-04T01:20:41.367Z,35.50
2019-04-04T01:25:44.693Z,35.00
2019-04-04T01:30:48.317Z,34.10
2019-04-04T01:35:54.092Z,35.20
2019-04-04T01:40:57.242Z,36.50
2019-04-04T01:46:01.634Z,35.80
2019-04-04T01:51:07.684Z,36.70
2019-04-04T01:56:10.211Z,36.20
2019-04-04T02:01:16.251Z,37.10
2019-04-04T02:06:19.878Z,35.40
2019-04-04T02:11:24.014Z,37.40
2019-04-04T02:16:27.704Z,35.70
2019-04-04T02:21:31.698Z,37.10
2019-04-04T02:26:36.607Z,38.20
2019-04-04T02:31:43.946Z,36.40
2019-04-04T02:36:49.188Z,37.90
2019-04-04T02:41:53.563Z,38.00
2019-04-04T02:46:56.869Z,38.30
2019-04-04T02:52:00.241Z,38.00
2019-04-04T02:57:25.251Z,38.20
2019-04-04T03:02:28.589Z,38.20
2019-04-04T03:07:32.028Z,38.20
2019-04-04T03:12:35.755Z,38.00
2019-04-04T03:17:39.765Z,38.10
2019-04-04T03:22:43.518Z,38.00
2019-04-04T03:27:47.288Z,37.90
2019-04-04T03:32:54.160Z,38.00
2019-04-04T03:37:56.546Z,36.40
2019-04-04T03:42:59.836Z,37.50
2019-04-04T03:48:03.161Z,38.30
2019-04-04T03:53:07.538Z,38.50
2019-04-04T03:58:10.839Z,38.10
2019-04-04T04:03:14.565Z,39.00
2019-04-04T04:08:21.002Z,39.20
2019-04-04T04:13:23.438Z,39.50
2019-04-04T04:18:26.800Z,39.60
2019-04-04T04:23:30.128Z,39.30
2019-04-04T04:28:33.423Z,40.10
2019-04-04T04:33:36.710Z,40.20
2019-04-04T04:38:40.006Z,40.30
2019-04-04T04:43:43.335Z,40.10
2019-04-04T04:48:46.693Z,40.50
2019-04-04T04:53:50.558Z,40.60
2019-04-04T04:58:55.659Z,40.60
2019-04-04T05:04:02.324Z,39.10
2019-04-04T05:09:05.662Z,40.60
2019-04-04T05:14:10.026Z,40.70
2019-04-04T05:19:13.572Z,40.70
2019-04-04T05:24:18.120Z,40.50
2019-04-04T05:29:22.101Z,40.20
2019-04-04T05:34:25.404Z,40.00
2019-04-04T05:39:29.145Z,38.20
2019-04-04T05:44:34.222Z,39.40
2019-04-04T05:49:38.187Z,38.70
2019-04-04T05:54:42.901Z,38.90
2019-04-04T05:59:47.341Z,38.50
2019-04-04T06:04:55.103Z,38.20
2019-04-04T06:09:56.421Z,37.40
2019-04-04T06:15:01.227Z,37.20
2019-04-04T06:20:06.412Z,37.20
2019-04-04T06:25:10.115Z,36.90
2019-04-04T06:30:14.092Z,37.40
2019-04-04T06:35:17.887Z,37.40
2019-04-04T06:40:21.420Z,37.20
2019-04-04T06:45:24.738Z,37.40
2019-04-04T06:50:29.444Z,35.90
2019-04-04T06:55:38.348Z,36.90
2019-04-04T07:00:42.009Z,36.60
2019-04-04T07:05:45.119Z,36.60
2019-04-04T07:11:20.548Z,36.50
2019-04-04T07:16:13.102Z,35.50
2019-04-04T07:21:19.823Z,35.80
2019-04-04T07:26:22.547Z,35.50
2019-04-04T07:31:25.868Z,35.20
2019-04-04T07:36:29.224Z,34.40
2019-04-04T07:41:32.528Z,34.00
2019-04-04T07:46:36.388Z,32.80
2019-04-04T07:51:40.070Z,31.90
2019-04-04T07:56:46.752Z,31.90
2019-04-04T08:01:51.337Z,33.20
2019-04-04T08:06:54.561Z,33.70
2019-04-04T08:11:58.190Z,33.90
2019-04-04T08:17:01.987Z,33.30
2019-04-04T08:22:05.383Z,33.70
2019-04-04T08:27:08.859Z,33.10
2019-04-04T08:32:12.167Z,32.90
2019-04-04T08:37:15.880Z,33.00
2019-04-04T08:42:19.997Z,33.10
2019-04-04T08:47:23.342Z,33.30
2019-04-04T08:52:26.642Z,32.80
2019-04-04T08:57:30.341Z,33.10
2019-04-04T09:02:33.685Z,32.00
2019-04-04T09:07:37.055Z,32.70
2019-04-04T09:12:40.399Z,33.00
2019-04-04T09:17:43.897Z,32.50
2019-04-04T09:22:47.681Z,32.20
2019-04-04T09:27:52.349Z,31.60
2019-04-04T09:32:55.672Z,31.60
2019-04-04T09:37:59.396Z,31.20
2019-04-04T09:43:02.939Z,31.70
2019-04-04T09:48:06.728Z,31.90
2019-04-04T09:53:10.076Z,32.40
2019-04-04T09:58:13.377Z,32.80
2019-04-04T10:03:16.874Z,32.30
2019-04-04T10:08:20.267Z,30.40
2019-04-04T10:13:25.760Z,31.20
2019-04-04T10:18:29.070Z,32.60
2019-04-04T10:23:32.432Z,31.50
2019-04-04T10:28:35.770Z,30.80
2019-04-04T10:33:42.069Z,29.70
2019-04-04T10:38:45.243Z,30.90
2019-04-04T10:43:48.649Z,30.40
2019-04-04T10:48:51.955Z,29.80
2019-04-04T10:53:56.199Z,31.50
2019-04-04T10:59:00.067Z,29.60
2019-04-04T11:04:03.434Z,30.40
2019-04-04T11:09:07.806Z,30.10
2019-04-04T11:14:11.378Z,30.50
2019-04-04T11:19:15.103Z,30.10
2019-04-04T11:24:19.134Z,29.50
2019-04-04T11:29:22.491Z,29.90
2019-04-04T11:34:25.849Z,30.40
2019-04-04T11:39:30.587Z,30.00
2019-04-04T11:44:33.976Z,29.60
2019-04-04T11:49:38.122Z,29.30
2019-04-04T11:54:58.398Z,30.10
2019-04-04T12:00:01.924Z,29.60
2019-04-04T12:05:06.211Z,29.00
2019-04-04T12:10:10.475Z,29.30
2019-04-04T12:15:14.212Z,29.50
2019-04-04T12:20:18.056Z,29.50
2019-04-04T12:25:21.505Z,28.50
2019-04-04T12:30:25.273Z,28.40
2019-04-04T12:35:28.586Z,29.10
2019-04-04T12:40:34.239Z,28.80
2019-04-04T12:45:37.947Z,29.50
2019-04-04T12:50:41.359Z,29.10
2019-04-04T12:55:44.682Z,29.50
2019-04-04T13:00:48.263Z,29.10
2019-04-04T13:05:51.631Z,29.30
2019-04-04T13:10:55.827Z,28.90
2019-04-04T13:16:00.374Z,28.50
2019-04-04T13:21:04.083Z,27.90
2019-04-04T13:26:07.601Z,28.50
2019-04-04T13:31:12.344Z,29.20
2019-04-04T13:36:15.678Z,27.90
2019-04-04T13:41:22.185Z,28.50
2019-04-04T13:46:25.912Z,29.10
2019-04-04T13:51:30.299Z,28.70
2019-04-04T13:56:34.394Z,28.50
2019-04-04T14:01:42.740Z,28.00
2019-04-04T14:06:45.257Z,28.70
2019-04-04T14:11:49.272Z,29.00
2019-04-04T14:16:52.633Z,29.30
2019-04-04T14:21:56.793Z,28.50
2019-04-04T14:27:02.338Z,28.80
2019-04-04T14:32:06.304Z,28.70
2019-04-04T14:37:09.614Z,28.20
2019-04-04T14:42:13.461Z,28.90
2019-04-04T14:47:17.160Z,27.60
2019-04-04T14:52:20.647Z,28.30
2019-04-04T14:57:24.180Z,27.70
2019-04-04T15:02:27.533Z,28.20
2019-04-04T15:07:32.563Z,24.70
2019-04-04T15:12:35.986Z,23.00
2019-04-04T15:17:39.332Z,21.50
2019-04-04T15:22:43.379Z,20.50
2019-04-04T15:27:47.238Z,19.40
2019-04-04T15:32:50.578Z,19.80
2019-04-04T15:37:54.160Z,19.60
2019-04-04T15:42:58.448Z,20.30
2019-04-04T15:48:01.776Z,19.70
2019-04-04T15:53:05.066Z,19.40
2019-04-04T15:58:08.362Z,19.10
2019-04-04T16:03:12.582Z,19.60
2019-04-04T16:08:16.203Z,21.10
2019-04-04T16:13:19.911Z,23.50
2019-04-04T16:18:23.201Z,24.00
2019-04-04T16:23:26.921Z,26.80
2019-04-04T16:28:30.506Z,26.50
2019-04-04T16:33:34.348Z,27.00
2019-04-04T16:38:37.690Z,28.80
2019-04-04T16:43:41.222Z,29.20
2019-04-04T16:48:46.342Z,30.00
2019-04-04T16:53:49.696Z,30.70
2019-04-04T16:58:53.167Z,31.20
2019-04-04T17:04:01.786Z,31.90
2019-04-04T17:09:02.221Z,32.50
2019-04-04T17:14:05.606Z,31.00
2019-04-04T17:19:09.597Z,32.80
2019-04-04T17:24:13.063Z,32.80
2019-04-04T17:29:16.425Z,33.50
2019-04-04T17:34:20.284Z,33.70
2019-04-04T17:39:24.177Z,34.90
2019-04-04T17:44:28.493Z,34.20
2019-04-04T17:49:32.722Z,33.20
2019-04-04T17:54:36.610Z,33.10
2019-04-04T17:59:39.948Z,33.10
2019-04-04T18:04:48.580Z,33.20
2019-04-04T18:09:48.538Z,33.50
2019-04-04T18:14:52.606Z,33.60
2019-04-04T18:19:55.970Z,33.60
2019-04-04T18:25:00.038Z,32.10
2019-04-04T18:30:06.996Z,33.20
2019-04-04T18:35:10.746Z,33.90
2019-04-04T18:40:14.518Z,34.90
2019-04-04T18:45:18.712Z,33.60
2019-04-04T18:50:22.084Z,35.10
2019-04-04T18:55:26.406Z,35.40
2019-04-04T19:00:29.863Z,35.60
2019-04-04T19:05:33.207Z,36.10
2019-04-04T19:10:36.535Z,36.30
2019-04-04T19:15:41.515Z,36.40
2019-04-04T19:20:45.012Z,36.60
2019-04-04T19:25:49.274Z,36.70
2019-04-04T19:30:52.621Z,36.70
2019-04-04T19:35:57.532Z,36.70
2019-04-04T19:41:00.817Z,36.90
2019-04-04T19:46:04.417Z,36.80
2019-04-04T19:51:07.735Z,36.80
2019-04-04T19:56:11.339Z,37.00
2019-04-04T20:01:14.936Z,37.10
2019-04-04T20:06:18.245Z,37.20
2019-04-04T20:11:21.645Z,37.10
2019-04-04T20:16:24.988Z,37.10
2019-04-04T20:21:28.384Z,37.10
2019-04-04T20:26:32.082Z,37.20
2019-04-04T20:31:35.447Z,37.30
2019-04-04T20:36:39.085Z,36.10
2019-04-04T20:41:42.392Z,37.40
2019-04-04T20:46:46.586Z,37.60
2019-04-04T20:51:50.067Z,37.60
2019-04-04T20:56:53.377Z,37.80
2019-04-04T21:01:56.677Z,37.30
2019-04-04T21:07:14.810Z,36.90
2019-04-04T21:12:18.890Z,38.80
2019-04-04T21:17:22.421Z,39.20
2019-04-04T21:22:27.680Z,39.80
2019-04-04T21:27:30.894Z,40.00
2019-04-04T21:32:34.340Z,40.30
2019-04-04T21:37:37.684Z,39.40
2019-04-04T21:42:41.378Z,40.80
2019-04-04T21:47:44.971Z,41.10
2019-04-04T21:52:48.321Z,41.20
2019-04-04T21:57:51.644Z,41.40
2019-04-04T22:02:54.945Z,41.40
2019-04-04T22:07:58.255Z,40.90
2019-04-04T22:13:01.594Z,41.60
2019-04-04T22:18:06.177Z,41.60
2019-04-04T22:23:09.990Z,40.80
2019-04-04T22:28:13.578Z,41.80
2019-04-04T22:33:16.942Z,41.90
2019-04-04T22:38:20.686Z,41.60
2019-04-04T22:43:24.770Z,42.20
2019-04-04T22:48:28.105Z,42.30
2019-04-04T22:53:31.905Z,42.40
2019-04-04T22:58:35.316Z,42.70
2019-04-04T23:03:38.646Z,42.80
2019-04-04T23:08:42.286Z,43.00
2019-04-04T23:13:45.982Z,43.00
2019-04-04T23:18:49.618Z,43.30
2019-04-04T23:23:52.942Z,43.40
2019-04-04T23:28:56.302Z,43.60
2019-04-04T23:33:59.591Z,43.60
2019-04-04T23:39:04.193Z,43.60
2019-04-04T23:44:08.172Z,43.90
2019-04-04T23:49:12.032Z,44.20
2019-04-04T23:54:16.349Z,44.20
2019-04-04T23:59:20.006Z,44.40
